Time;durP1;ratioP1;P1;durP2;ratioP2;P2;SDS_P1;SDS_P2;PMS_P1;PMS_P2;Temp;Humidity;BMP_temperature;BMP_pressure;BME280_temperature;BME280_humidity;BME280_pressure;Samples;Min_cycle;Max_cycle;Signal;HPM_P1;HPM_P2
2022/10/19 04:37:16;;;;;;;2.45;1.00;;;;;;;8.00;50.58;100088.94;4856254;28;20065;-62
2022/10/19 05:51:42;;;;;;;4.32;1.35;;;;;;;6.78;49.54;100165.84;4914357;28;20954;-64
2022/10/19 05:54:26;;;;;;;5.60;1.10;;;;;;;6.73;49.50;100165.00;4882290;28;20070;-67
2022/10/19 05:57:01;;;;;;;8.20;1.48;;;;;;;6.76;50.42;100159.78;4889347;28;20064;-65
2022/10/19 05:59:55;;;;;;;3.60;1.40;;;;;;;6.84;51.39;100158.06;4852879;28;20054;-63
2022/10/19 06:02:34;;;;;;;2.75;1.27;;;;;;;6.99;51.19;100177.06;4870490;28;20041;-63
2022/10/19 06:05:16;;;;;;;4.07;1.40;;;;;;;7.09;52.07;100173.59;4830821;28;20111;-64
2022/10/19 06:08:11;;;;;;;3.38;1.40;;;;;;;7.22;50.57;100175.25;4873122;28;20051;-63
2022/10/19 06:10:48;;;;;;;3.13;1.50;;;;;;;7.37;50.30;100178.66;4846719;28;20049;-65
2022/10/19 06:13:30;;;;;;;3.08;1.42;;;;;;;7.47;49.31;100185.53;4868302;28;20321;-65
2022/10/19 06:16:29;;;;;;;3.45;1.20;;;;;;;6.86;48.77;100075.81;4912104;28;20051;-65
2022/10/19 06:19:11;;;;;;;6.47;1.77;;;;;;;7.33;49.11;100173.44;4878590;28;20267;-66
2022/10/19 06:22:07;;;;;;;2.90;1.30;;;;;;;7.35;50.46;100176.91;4854026;28;20069;-66
2022/10/19 06:25:30;;;;;;;1.80;1.10;;;;;;;7.31;50.40;100170.03;4873305;28;20090;-65
2022/10/19 06:28:24;;;;;;;2.10;1.38;;;;;;;7.37;50.79;100183.88;4889308;28;20067;-65
2022/10/19 06:31:02;;;;;;;2.78;1.20;;;;;;;7.34;51.69;100183.00;4903499;28;20040;-64
2022/10/19 06:33:49;;;;;;;6.30;1.30;;;;;;;7.31;51.72;100190.81;4906295;28;20053;-65
2022/10/19 06:36:27;;;;;;;4.00;1.20;;;;;;;6.68;52.07;100092.31;4908963;28;20045;-65
2022/10/19 06:39:29;;;;;;;2.90;1.45;;;;;;;7.17;52.09;100192.59;4875928;28;20058;-64
2022/10/19 06:42:10;;;;;;;5.45;1.52;;;;;;;7.08;51.93;100190.88;4820203;28;20347;-64
2022/10/19 06:44:55;;;;;;;2.25;1.70;;;;;;;7.03;52.67;100196.97;4828219;28;20046;-63
2022/10/19 06:47:50;;;;;;;3.22;1.52;;;;;;;7.04;52.20;100201.28;4845670;28;20050;-66
2022/10/19 06:50:48;;;;;;;6.32;1.60;;;;;;;6.97;52.82;100184.00;4825329;28;20046;-66
2022/10/19 06:53:37;;;;;;;13.70;8.13;;;;;;;6.98;53.52;100191.78;4826570;28;20103;-64
2022/10/19 06:56:17;;;;;;;9.75;7.88;;;;;;;6.87;53.17;100194.41;4894601;28;20058;-64
2022/10/19 06:59:04;;;;;;;7.53;3.65;;;;;;;6.81;54.05;100193.56;4838631;28;20050;-63
2022/10/19 07:01:52;;;;;;;8.52;2.72;;;;;;;6.76;54.25;100190.97;4865590;28;20062;-63
2022/10/19 07:04:35;;;;;;;3.17;2.10;;;;;;;6.75;54.55;100197.03;4955680;28;20175;-64
2022/10/19 07:07:30;;;;;;;8.95;3.40;;;;;;;6.71;54.80;100192.69;4841051;28;20235;-63
2022/10/19 07:10:06;;;;;;;3.78;2.20;;;;;;;6.64;54.32;100201.38;4946606;29;20056;-64
2022/10/19 07:12:52;;;;;;;7.93;3.30;;;;;;;6.57;54.98;100194.47;4922094;29;20070;-64
2022/10/19 07:16:02;;;;;;;8.00;3.58;;;;;;;6.41;56.11;100189.28;4879851;28;20042;-65
2022/10/19 07:18:38;;;;;;;5.07;2.20;;;;;;;6.31;55.92;100197.94;4831973;28;20056;-64
2022/10/19 07:21:23;;;;;;;4.32;1.83;;;;;;;6.25;55.99;100206.59;4855063;28;20574;-64
2022/10/19 07:24:05;;;;;;;6.50;2.85;;;;;;;6.16;56.96;100192.75;4904768;28;20069;-64
2022/10/19 07:29:37;;;;;;;7.28;3.20;;;;;;;5.96;57.72;100205.69;4870532;28;20048;-64
2022/10/19 07:32:34;;;;;;;2.60;1.50;;;;;;;5.79;57.80;100208.22;4830570;28;20117;-64
2022/10/19 07:35:30;;;;;;;6.97;2.10;;;;;;;5.62;58.04;100206.47;4967991;28;20053;-64
2022/10/19 07:38:06;;;;;;;3.80;1.85;;;;;;;5.41;57.87;100206.38;5045899;28;20041;-65
2022/10/19 07:43:43;;;;;;;5.10;3.45;;;;;;;5.26;58.51;100222.72;5047001;28;20120;-64
2022/10/19 07:46:24;;;;;;;4.88;2.90;;;;;;;5.23;58.89;100233.09;5018548;28;20056;-64
2022/10/19 07:49:05;;;;;;;26.92;10.50;;;;;;;5.19;59.42;100237.41;4857079;28;20066;-65
2022/10/19 07:51:45;;;;;;;31.00;10.18;;;;;;;5.12;59.70;100237.34;4905110;28;20061;-65
2022/10/19 07:54:51;;;;;;;22.55;8.75;;;;;;;5.06;60.12;100227.81;4927223;28;20053;-64
2022/10/19 07:57:51;;;;;;;7.72;3.50;;;;;;;4.95;61.13;100232.06;4870302;28;20103;-64
2022/10/19 08:00:53;;;;;;;7.80;2.90;;;;;;;4.87;61.76;100229.44;4903393;28;20044;-64
2022/10/19 08:03:33;;;;;;;7.18;2.72;;;;;;;4.83;61.90;100239.78;4897889;28;20041;-64
2022/10/19 08:07:04;;;;;;;5.65;2.40;;;;;;;4.69;61.72;100240.56;4892301;28;20054;-64
2022/10/19 08:09:56;;;;;;;22.30;11.82;;;;;;;4.60;61.80;100253.41;4876199;28;20293;-64
2022/10/19 08:12:45;;;;;;;11.38;5.72;;;;;;;4.62;61.99;100254.28;4916558;28;20063;-64
2022/10/19 08:15:53;;;;;;;22.75;9.55;;;;;;;4.58;61.50;100262.88;4869793;28;20053;-65
2022/10/19 08:21:43;;;;;;;11.98;6.13;;;;;;;4.44;62.42;100249.84;4895492;28;20056;-64
2022/10/19 08:24:33;;;;;;;8.95;6.75;;;;;;;4.39;62.71;100240.28;4904239;28;20065;-65
2022/10/19 08:27:13;;;;;;;13.20;6.07;;;;;;;4.36;62.98;100263.56;4863279;28;20049;-65
2022/10/19 08:32:40;;;;;;;7.25;3.20;;;;;;;4.26;63.12;100260.88;4894197;28;20087;-65
2022/10/19 08:35:37;;;;;;;5.68;2.35;;;;;;;4.28;62.79;100261.75;4854145;28;20076;-65
2022/10/19 08:38:26;;;;;;;8.18;3.28;;;;;;;4.30;63.02;100273.00;4883300;28;20091;-65
2022/10/19 08:41:08;;;;;;;11.68;5.10;;;;;;;4.26;63.34;100271.22;4883398;28;20101;-65
2022/10/19 08:44:11;;;;;;;10.75;4.70;;;;;;;4.30;63.50;100262.66;4887957;28;20055;-64
2022/10/19 08:47:05;;;;;;;8.25;3.42;;;;;;;4.23;63.65;100270.34;4905236;28;20368;-65
2022/10/19 08:49:43;;;;;;;10.02;3.63;;;;;;;4.22;63.62;100263.41;4909087;28;20086;-65
2022/10/19 08:52:40;;;;;;;8.65;3.22;;;;;;;4.20;63.54;100266.00;4893454;28;20059;-65
2022/10/19 08:55:58;;;;;;;13.07;3.80;;;;;;;4.18;64.09;100267.69;4908149;28;20057;-65
2022/10/19 08:59:18;;;;;;;17.65;6.38;;;;;;;4.11;64.05;100265.91;4908409;28;20063;-65
2022/10/19 09:02:02;;;;;;;56.92;18.10;;;;;;;4.04;64.46;100269.28;4874977;28;20166;-65
2022/10/19 09:04:43;;;;;;;43.75;16.27;;;;;;;3.95;64.32;100269.19;4906374;28;20352;-65
2022/10/19 09:07:29;;;;;;;25.02;8.52;;;;;;;3.33;64.94;100174.63;4903091;28;21519;-66
2022/10/19 09:10:39;;;;;;;9.63;4.38;;;;;;;3.92;64.73;100263.97;4890845;28;20048;-66
2022/10/19 09:13:24;;;;;;;11.68;4.38;;;;;;;3.95;65.13;100279.53;4901679;28;20083;-66
2022/10/19 09:16:38;;;;;;;8.27;2.65;;;;;;;3.78;65.26;100267.28;4863815;28;20050;-66
2022/10/19 09:19:32;;;;;;;8.30;2.72;;;;;;;3.81;66.03;100282.81;4878273;28;20045;-66
2022/10/19 09:22:17;;;;;;;5.47;2.30;;;;;;;3.80;66.55;100275.94;4898110;28;20055;-66
2022/10/19 09:25:04;;;;;;;3.58;2.25;;;;;;;3.74;66.59;100270.66;4915890;28;20096;-66
2022/10/19 09:27:51;;;;;;;5.88;2.45;;;;;;;3.56;66.19;100240.31;4885299;28;20057;-66
2022/10/19 09:30:42;;;;;;;5.40;4.05;;;;;;;3.69;66.73;100267.16;4897092;28;20099;-65
2022/10/19 09:34:01;;;;;;;4.57;3.40;;;;;;;3.76;67.08;100283.63;4921698;28;20068;-66
2022/10/19 09:36:56;;;;;;;7.10;3.38;;;;;;;3.69;67.21;100267.16;4836509;28;20056;-65
2022/10/19 09:42:31;;;;;;;6.65;2.15;;;;;;;3.64;67.36;100279.16;4886318;28;20045;-65
2022/10/19 09:45:38;;;;;;;6.40;2.30;;;;;;;3.67;66.91;100289.56;4881184;28;21490;-66
2022/10/19 09:48:30;;;;;;;8.55;2.30;;;;;;;3.64;67.13;100274.00;4890999;28;20078;-66
2022/10/19 09:51:32;;;;;;;7.93;2.20;;;;;;;3.53;66.48;100260.09;4883432;28;20041;-66
2022/10/19 09:54:43;;;;;;;5.30;2.90;;;;;;;3.62;67.51;100280.88;4855341;28;20180;-67
2022/10/19 09:57:26;;;;;;;10.57;3.35;;;;;;;3.51;68.33;100283.31;4842736;28;20085;-66
2022/10/19 10:03:42;;;;;;;8.32;4.95;;;;;;;3.07;68.48;100280.13;4847259;28;20295;-67
2022/10/19 10:06:42;;;;;;;34.35;16.98;;;;;;;2.91;68.98;100291.97;4873104;28;20052;-66
2022/10/19 10:09:35;;;;;;;24.88;14.20;;;;;;;2.10;69.46;100184.09;4842583;28;20078;-66
2022/10/19 10:15:01;;;;;;;;;;;;;;;2.54;71.26;100286.22;4849317;28;20114;-66
2022/10/19 10:17:46;;;;;;;12.55;5.18;;;;;;;2.56;72.32;100274.22;4900344;28;19936;-66
2022/10/19 10:20:26;;;;;;;6.15;3.50;;;;;;;2.57;72.26;100289.72;4879750;28;20101;-67
2022/10/19 10:23:26;;;;;;;13.52;4.75;;;;;;;2.56;72.37;100287.97;4853156;28;20069;-68
2022/10/19 10:26:05;;;;;;;8.00;4.60;;;;;;;2.58;72.62;100291.47;4858099;28;20110;-67
2022/10/19 10:32:06;;;;;;;10.38;5.53;;;;;;;2.59;73.29;100293.19;4870091;28;19917;-65
2022/10/19 10:34:51;;;;;;;12.38;6.40;;;;;;;2.51;72.58;100289.63;4864958;28;20064;-67
2022/10/19 10:38:16;;;;;;;9.00;4.05;;;;;;;2.42;72.81;100294.63;4893323;28;20045;-67
2022/10/19 10:40:58;;;;;;;24.98;10.88;;;;;;;2.37;73.14;100296.25;4859369;28;20601;-66
2022/10/19 10:44:01;;;;;;;15.23;8.32;;;;;;;2.18;73.64;100289.91;4891412;28;20128;-66
2022/10/19 10:46:55;;;;;;;14.55;7.03;;;;;;;2.16;74.18;100312.22;4901221;28;20085;-67
2022/10/19 10:49:44;;;;;;;9.32;3.63;;;;;;;2.07;74.55;100307.78;4898945;28;20057;-66
2022/10/19 10:52:28;;;;;;;81.70;28.92;;;;;;;2.02;74.65;100304.22;4895518;28;20097;-66
2022/10/19 10:55:27;;;;;;;44.88;18.45;;;;;;;1.76;75.37;100261.63;4877595;28;20064;-66
2022/10/19 10:58:46;;;;;;;20.83;7.65;;;;;;;1.96;76.36;100298.94;4903829;28;20230;-66
2022/10/19 11:01:56;;;;;;;10.82;4.68;;;;;;;1.81;76.51;100278.91;4903594;28;20142;-67
2022/10/19 11:04:47;;;;;;;9.45;3.50;;;;;;;1.90;76.38;100293.69;4909435;28;20468;-69
2022/10/19 11:07:40;;;;;;;7.43;4.10;;;;;;;1.85;77.04;100274.69;4920070;28;20036;-68
2022/10/19 11:10:27;;;;;;;13.25;5.10;;;;;;;1.88;76.89;100295.38;4935128;28;20044;-68
2022/10/19 11:13:19;;;;;;;13.35;5.47;;;;;;;1.92;76.83;100297.13;4864082;28;20049;-68
2022/10/19 11:16:13;;;;;;;20.80;6.63;;;;;;;1.37;76.92;100213.66;4885067;28;20490;-69
2022/10/19 11:19:05;;;;;;;19.45;6.90;;;;;;;1.85;76.79;100310.78;4917363;28;20132;-68
2022/10/19 11:22:15;;;;;;;20.88;7.53;;;;;;;1.80;76.77;100307.22;4891433;28;20055;-69
2022/10/19 11:25:20;;;;;;;32.42;9.30;;;;;;;1.78;77.04;100308.91;4885105;28;20033;-68
2022/10/19 11:28:18;;;;;;;33.95;11.13;;;;;;;1.76;77.21;100308.00;4901279;28;20056;-68
2022/10/19 11:31:17;;;;;;;39.05;11.80;;;;;;;1.72;77.15;100307.94;4884378;28;20045;-69
2022/10/19 11:34:11;;;;;;;32.55;11.27;;;;;;;1.71;77.59;100308.78;4920439;28;20049;-68
2022/10/19 11:37:02;;;;;;;25.00;10.18;;;;;;;1.69;77.96;100294.97;4908328;28;20058;-68
2022/10/19 11:39:51;;;;;;;24.83;10.05;;;;;;;1.72;77.87;100309.63;4902838;28;20041;-69
2022/10/19 11:42:47;;;;;;;26.55;9.82;;;;;;;1.70;78.05;100307.03;4890667;28;20066;-67
2022/10/19 11:45:49;;;;;;;20.38;8.88;;;;;;;1.63;78.21;100304.31;4892210;28;20045;-68
2022/10/19 11:49:02;;;;;;;29.73;9.65;;;;;;;1.68;78.60;100308.72;4895420;28;20071;-68
2022/10/19 11:51:51;;;;;;;42.47;15.40;;;;;;;1.48;78.45;100263.66;4896270;28;20049;-69
2022/10/19 11:58:00;;;;;;;58.28;22.70;;;;;;;1.28;78.01;100256.41;4914328;28;20109;-69
2022/10/19 12:00:57;;;;;;;51.03;20.75;;;;;;;1.51;78.40;100315.22;4859875;28;20119;-67
2022/10/19 12:04:33;;;;;;;44.58;16.70;;;;;;;1.51;79.01;100317.78;4868801;28;20068;-67
2022/10/19 12:07:56;;;;;;;48.03;19.77;;;;;;;1.49;78.95;100304.00;4837064;28;20058;-68
2022/10/19 12:15:36;;;;;;;54.53;22.73;;;;;;;1.43;79.40;100311.63;4852956;28;20117;-67
2022/10/19 12:19:12;;;;;;;56.40;23.50;;;;;;;1.35;78.88;100308.88;4827602;28;20058;-67
2022/10/19 12:27:51;;;;;;;52.50;18.65;;;;;;;1.16;79.52;100323.03;4854695;28;20049;-66
2022/10/19 12:30:55;;;;;;;42.13;18.27;;;;;;;1.14;79.54;100329.00;4830007;28;20044;-66
2022/10/19 12:33:42;;;;;;;43.10;18.63;;;;;;;1.00;79.28;100320.94;4855831;28;20467;-66
2022/10/19 12:42:59;;;;;;;47.65;18.55;;;;;;;0.85;79.55;100332.63;4848601;28;20052;-67
2022/10/19 12:49:40;;;;;;;45.25;15.88;;;;;;;0.68;79.68;100339.06;4916054;28;20940;-67
2022/10/19 12:52:59;;;;;;;37.33;15.93;;;;;;;0.70;80.47;100331.38;4898925;28;20325;-68
2022/10/19 12:55:59;;;;;;;37.28;14.93;;;;;;;0.59;80.92;100328.53;4737817;29;20048;-66
2022/10/19 12:58:46;;;;;;;38.17;13.38;;;;;;;0.66;82.07;100322.72;4811553;28;20066;-67
2022/10/19 13:01:43;;;;;;;32.42;13.18;;;;;;;0.79;82.22;100340.19;4825661;28;20039;-67
2022/10/19 13:04:36;;;;;;;30.75;13.50;;;;;;;0.76;81.88;100342.69;4823328;28;20044;-67
2022/10/19 13:07:47;;;;;;;31.80;12.10;;;;;;;0.65;82.27;100318.44;4845882;28;20422;-67
2022/10/19 13:11:15;;;;;;;28.40;12.85;;;;;;;0.66;82.03;100324.44;4803160;28;20304;-67
2022/10/19 13:14:02;;;;;;;30.02;13.70;;;;;;;0.41;83.02;100283.53;4808942;28;20068;-67
2022/10/19 13:16:57;;;;;;;26.15;11.60;;;;;;;0.43;82.73;100287.03;4814325;28;20063;-67
2022/10/19 13:19:39;;;;;;;39.70;12.95;;;;;;;0.79;83.09;100342.75;4784135;28;20039;-66
2022/10/19 13:22:29;;;;;;;34.20;13.68;;;;;;;0.96;83.39;100326.88;4825216;28;20101;-66
2022/10/19 13:25:28;;;;;;;31.58;13.43;;;;;;;0.91;82.65;100315.59;4799590;28;20056;-66
2022/10/19 13:28:52;;;;;;;32.50;12.50;;;;;;;0.92;82.24;100312.19;4813097;28;20141;-67
2022/10/19 13:31:43;;;;;;;33.00;12.30;;;;;;;0.91;82.57;100326.75;4794311;28;20072;-66
2022/10/19 13:34:41;;;;;;;29.02;12.63;;;;;;;0.73;82.64;100301.47;4864930;28;20094;-66
2022/10/19 13:37:33;;;;;;;22.52;9.80;;;;;;;0.92;83.27;100323.34;4878068;28;20074;-66
2022/10/19 13:40:33;;;;;;;25.00;9.73;;;;;;;1.05;83.13;100325.38;4873384;28;20110;-65
2022/10/19 13:43:20;;;;;;;25.60;10.10;;;;;;;1.15;83.36;100300.72;4893022;28;20057;-66
2022/10/19 13:46:13;;;;;;;21.67;9.43;;;;;;;1.37;82.77;100326.94;4846805;28;20068;-66
2022/10/19 13:49:33;;;;;;;23.33;9.95;;;;;;;1.43;82.29;100327.06;4881036;28;20053;-66
2022/10/19 13:53:10;;;;;;;21.63;8.68;;;;;;;1.45;82.61;100320.25;4777520;28;20062;-65
2022/10/19 13:56:02;;;;;;;21.10;9.13;;;;;;;1.56;82.32;100334.22;4851289;28;20196;-65
2022/10/19 13:59:27;;;;;;;24.38;9.65;;;;;;;1.46;82.29;100342.59;4838004;28;20057;-66
2022/10/19 14:02:52;;;;;;;22.85;9.65;;;;;;;1.38;82.26;100338.97;4846046;28;20046;-66
2022/10/19 14:06:10;;;;;;;28.55;10.38;;;;;;;1.28;82.28;100343.06;4864326;28;20057;-67
2022/10/19 14:09:23;;;;;;;22.60;8.88;;;;;;;1.18;82.46;100336.81;4844077;28;20118;-67
2022/10/19 14:12:10;;;;;;;20.83;9.32;;;;;;;1.24;83.47;100336.09;4825326;28;20065;-66
2022/10/19 14:14:52;;;;;;;17.33;7.22;;;;;;;1.36;83.32;100340.66;4793332;28;20058;-67
2022/10/19 14:17:32;;;;;;;15.43;7.43;;;;;;;0.97;83.36;100253.97;4782553;28;20165;-66
2022/10/19 14:23:30;;;;;;;16.55;6.90;;;;;;;1.11;82.59;100226.84;4848058;28;20311;-65
2022/10/19 14:29:04;;;;;;;16.23;6.93;;;;;;;1.62;82.69;100329.22;4824940;28;20417;-66
2022/10/19 14:31:58;;;;;;;22.67;8.35;;;;;;;1.56;83.04;100323.06;4840317;28;20042;-66
2022/10/19 14:34:56;;;;;;;18.00;7.90;;;;;;;1.52;82.62;100322.09;4867744;28;20066;-67
2022/10/19 14:37:38;;;;;;;19.65;7.57;;;;;;;1.50;82.72;100323.81;4863239;28;20512;-67
2022/10/19 14:40:33;;;;;;;;;;;;;;;1.42;83.01;100330.47;4880844;28;20145;-66
2022/10/19 14:43:27;;;;;;;20.75;8.15;;;;;;;1.32;83.41;100325.94;4900347;28;19936;-66
2022/10/19 14:46:16;;;;;;;20.90;7.80;;;;;;;0.76;83.88;100232.09;4874126;28;20053;-67
2022/10/19 14:49:07;;;;;;;16.02;6.95;;;;;;;1.31;83.97;100327.66;4892280;28;20041;-67
2022/10/19 14:51:50;;;;;;;16.27;7.03;;;;;;;1.22;84.16;100320.63;4912012;28;20051;-66
2022/10/19 14:54:42;;;;;;;21.27;6.65;;;;;;;1.22;84.24;100323.19;4927875;28;20067;-66
2022/10/19 14:57:42;;;;;;;14.15;6.28;;;;;;;1.07;84.38;100323.72;4906703;28;20096;-66
2022/10/19 15:00:22;;;;;;;17.38;5.93;;;;;;;0.99;84.51;100334.66;4923868;28;20071;-67
2022/10/19 15:03:01;;;;;;;13.35;5.63;;;;;;;0.93;84.65;100339.66;4945457;28;20621;-66
2022/10/19 15:05:55;;;;;;;15.05;5.32;;;;;;;0.92;85.09;100358.50;4911523;28;20080;-67
2022/10/19 15:08:50;;;;;;;15.43;6.25;;;;;;;0.86;85.06;100354.94;4892903;28;20051;-66
2022/10/19 15:11:34;;;;;;;17.90;7.25;;;;;;;0.76;84.96;100350.41;4917395;28;20040;-66
2022/10/19 15:14:31;;;;;;;18.80;6.90;;;;;;;0.75;85.32;100346.09;4899524;28;20139;-66
2022/10/19 15:17:30;;;;;;;16.10;6.67;;;;;;;0.81;85.73;100341.09;4890781;28;20040;-66
2022/10/19 15:20:46;;;;;;;18.20;6.82;;;;;;;0.81;84.88;100351.38;4926488;28;20321;-67
2022/10/19 15:23:48;;;;;;;19.17;6.88;;;;;;;0.62;84.51;100346.63;4903903;28;20064;-66
2022/10/19 15:26:39;;;;;;;15.40;6.75;;;;;;;0.45;84.74;100350.47;4925175;28;20238;-66
2022/10/19 15:29:30;;;;;;;15.13;6.45;;;;;;;0.54;85.26;100361.00;4898593;28;20041;-66
2022/10/19 15:32:28;;;;;;;16.08;7.20;;;;;;;0.14;84.77;100300.84;4929437;28;20052;-67
2022/10/19 15:35:26;;;;;;;19.73;7.32;;;;;;;0.30;85.23;100350.91;4920318;28;20044;-67
2022/10/19 15:38:01;;;;;;;;;;;;;;;0.23;85.27;100360.19;4926280;28;20373;-66
2022/10/19 15:40:47;;;;;;;13.05;6.32;;;;;;;0.29;85.49;100365.47;4930135;28;19950;-67
2022/10/19 15:43:45;;;;;;;15.20;7.00;;;;;;;-0.09;85.42;100313.94;4913397;28;20044;-67
2022/10/19 15:46:38;;;;;;;16.67;6.93;;;;;;;0.01;84.97;100342.44;4899824;28;20057;-68
2022/10/19 15:49:56;;;;;;;15.40;6.75;;;;;;;0.07;85.25;100370.88;4889018;28;20236;-67
2022/10/19 15:52:40;;;;;;;15.98;6.78;;;;;;;0.07;85.38;100378.56;4798429;28;20052;-67
2022/10/19 15:55:21;;;;;;;17.63;5.80;;;;;;;0.09;85.79;100392.34;4850130;28;20057;-67
2022/10/19 15:58:13;;;;;;;15.75;6.53;;;;;;;-0.16;85.99;100337.69;4837466;28;20549;-68
2022/10/19 16:00:59;;;;;;;13.65;5.65;;;;;;;0.09;86.65;100387.19;4833495;28;20122;-67
2022/10/19 16:03:55;;;;;;;18.42;6.22;;;;;;;0.12;86.78;100382.13;4846810;28;20162;-67
2022/10/19 16:06:48;;;;;;;12.90;5.75;;;;;;;0.06;86.60;100376.84;4856117;28;20054;-68
2022/10/19 16:09:32;;;;;;;14.57;5.55;;;;;;;0.04;86.45;100393.91;4837596;28;20061;-68
2022/10/19 16:12:28;;;;;;;13.80;5.38;;;;;;;-0.08;86.37;100400.44;4799973;28;20057;-68
2022/10/19 16:15:11;;;;;;;14.35;5.60;;;;;;;-0.13;86.11;100390.84;4824515;28;20050;-68
2022/10/19 16:18:00;;;;;;;17.15;5.90;;;;;;;-0.17;86.48;100384.78;4819230;28;20056;-67
2022/10/19 16:20:57;;;;;;;11.45;5.80;;;;;;;-0.07;86.76;100404.75;4839980;28;20062;-68
2022/10/19 16:23:46;;;;;;;;;;;;;;;-0.09;87.11;100408.09;4786667;28;20055;-67
2022/10/19 16:29:25;;;;;;;15.55;5.55;;;;;;;0.05;87.72;100395.63;4909543;28;20040;-67
2022/10/19 16:32:03;;;;;;;11.15;4.68;;;;;;;0.02;87.29;100395.56;4922282;28;20363;-67
2022/10/19 16:34:52;;;;;;;13.90;4.43;;;;;;;-0.12;87.09;100390.91;4864294;28;20155;-67
2022/10/19 16:37:42;;;;;;;11.17;4.77;;;;;;;-0.11;87.79;100402.91;4928022;28;20048;-67
2022/10/19 16:40:23;;;;;;;11.38;4.50;;;;;;;-0.08;87.97;100395.28;4922239;28;20435;-67
2022/10/19 16:43:18;;;;;;;9.73;4.40;;;;;;;-0.13;88.21;100384.00;4883098;28;20040;-67
2022/10/19 16:46:10;;;;;;;8.65;3.83;;;;;;;-0.01;88.83;100392.06;4924683;28;20153;-66
2022/10/19 16:48:43;;;;;;;8.40;3.72;;;;;;;0.10;88.78;100379.56;4885401;28;20084;-67
2022/10/19 16:51:35;;;;;;;8.25;3.67;;;;;;;0.22;88.67;100384.13;4887943;28;20037;-68
2022/10/19 16:54:36;;;;;;;8.57;3.33;;;;;;;0.24;88.19;100387.63;4879674;28;20070;-68
2022/10/19 16:57:10;;;;;;;15.07;4.55;;;;;;;0.15;88.19;100382.22;4867811;28;20069;-68
2022/10/19 17:00:12;;;;;;;11.35;4.20;;;;;;;0.12;88.42;100371.88;4898422;28;20046;-68
2022/10/19 17:02:59;;;;;;;9.13;3.22;;;;;;;-0.01;88.46;100374.09;4897704;28;20049;-68
2022/10/19 17:05:47;;;;;;;7.47;3.45;;;;;;;0.07;88.82;100402.56;4912656;28;20054;-68
2022/10/19 17:08:35;;;;;;;9.43;3.25;;;;;;;0.09;88.81;100398.34;4841801;28;20561;-68
2022/10/19 17:12:14;;;;;;;9.75;3.83;;;;;;;0.04;88.52;100391.34;4882004;28;20042;-68
2022/10/19 17:15:26;;;;;;;8.35;3.00;;;;;;;-0.04;88.94;100392.00;4932160;28;20053;-68
2022/10/19 17:18:19;;;;;;;9.40;3.30;;;;;;;-0.01;89.29;100406.63;4915735;28;20049;-67
2022/10/19 17:20:56;;;;;;;5.32;2.40;;;;;;;-0.01;89.02;100392.06;4907983;28;20337;-67
2022/10/19 17:23:58;;;;;;;6.57;2.90;;;;;;;-0.16;89.11;100390.78;4894539;28;20296;-68
2022/10/19 17:26:50;;;;;;;12.00;2.90;;;;;;;-0.08;89.88;100400.44;4888381;28;20036;-67
2022/10/19 17:30:08;;;;;;;6.22;2.85;;;;;;;-0.08;90.10;100405.56;4919386;28;20069;-67
2022/10/19 17:32:46;;;;;;;7.13;2.65;;;;;;;-0.10;90.12;100391.81;4896308;28;20041;-67
2022/10/19 17:35:21;;;;;;;10.23;2.90;;;;;;;-0.06;89.67;100393.63;4914316;28;20073;-67
2022/10/19 17:38:17;;;;;;;6.50;2.63;;;;;;;-0.07;89.87;100385.91;4901402;28;20040;-67
2022/10/19 17:40:53;;;;;;;10.00;3.15;;;;;;;-0.05;90.37;100380.00;4920949;28;20430;-68
2022/10/19 17:46:20;;;;;;;10.50;2.85;;;;;;;-0.09;90.17;100377.28;4892966;28;20064;-67
2022/10/19 17:48:59;;;;;;;6.57;2.55;;;;;;;-0.10;89.48;100381.56;4899684;28;20111;-68
2022/10/19 17:52:00;;;;;;;8.68;2.55;;;;;;;-0.10;89.63;100381.56;4901618;28;20057;-68
2022/10/19 17:54:54;;;;;;;7.10;2.70;;;;;;;-0.16;88.94;100376.22;4916604;28;20055;-68
2022/10/19 17:57:54;;;;;;;5.95;2.78;;;;;;;-0.15;89.48;100383.13;4868532;28;20053;-67
2022/10/19 18:00:32;;;;;;;7.30;2.33;;;;;;;-0.17;89.26;100377.06;4834146;28;20449;-68
2022/10/19 18:03:10;;;;;;;6.78;2.67;;;;;;;-0.25;89.00;100370.81;4890121;28;20045;-68
2022/10/19 18:06:10;;;;;;;9.13;2.47;;;;;;;-0.23;88.84;100382.00;4915340;28;20077;-68
2022/10/19 18:08:49;;;;;;;5.78;2.15;;;;;;;-0.27;88.93;100388.75;4897141;28;20067;-68
2022/10/19 18:11:30;;;;;;;4.65;2.47;;;;;;;-0.30;89.16;100392.91;4923855;28;20051;-68
2022/10/19 18:14:15;;;;;;;6.70;3.08;;;;;;;-0.41;88.71;100379.78;4884175;28;20040;-69
2022/10/19 18:17:04;;;;;;;8.85;2.85;;;;;;;-0.44;88.94;100390.81;4928944;28;20198;-68
2022/10/19 18:19:49;;;;;;;5.15;2.40;;;;;;;-0.43;89.32;100397.69;4919251;28;20472;-68
2022/10/19 18:22:47;;;;;;;5.28;2.35;;;;;;;-0.47;89.18;100395.88;4862716;28;20045;-69
2022/10/19 18:25:21;;;;;;;12.88;3.60;;;;;;;-0.53;89.21;100390.53;4890048;28;20056;-69
2022/10/19 18:28:29;;;;;;;8.48;3.30;;;;;;;-0.61;89.28;100386.88;4909925;28;20040;-68
2022/10/19 18:31:14;;;;;;;5.03;2.65;;;;;;;-0.53;89.34;100390.53;4910292;28;20424;-68
2022/10/19 18:33:53;;;;;;;;;;;;;;;-0.52;89.53;100397.44;4939151;28;20062;-68
2022/10/19 18:39:55;;;;;;;8.77;2.63;;;;;;;-0.48;90.18;100383.84;4935584;28;20283;-68
2022/10/19 18:42:34;;;;;;;5.35;2.95;;;;;;;-0.47;90.22;100390.75;4903778;28;20233;-67
2022/10/19 18:45:24;;;;;;;14.02;2.83;;;;;;;-0.32;90.25;100397.16;4887765;28;20112;-68
2022/10/19 18:48:33;;;;;;;6.57;3.10;;;;;;;-0.31;89.80;100389.50;4907678;28;20049;-68
2022/10/19 18:51:25;;;;;;;7.43;2.85;;;;;;;-0.28;90.32;100391.28;4911113;28;20103;-67
2022/10/19 18:57:09;;;;;;;6.25;2.90;;;;;;;-0.29;89.50;100384.41;4917279;28;20075;-68
2022/10/19 18:59:57;;;;;;;9.98;3.05;;;;;;;-0.33;89.88;100387.72;4915937;28;20040;-67
2022/10/19 19:05:21;;;;;;;11.02;3.90;;;;;;;-0.49;89.80;100392.38;4907412;28;20236;-68
2022/10/19 19:08:07;;;;;;;15.73;4.13;;;;;;;-0.51;90.13;100401.72;4932005;28;20151;-68
2022/10/19 19:10:54;;;;;;;14.05;4.72;;;;;;;-0.44;90.45;100395.97;4890900;28;20259;-68
2022/10/19 19:13:36;;;;;;;10.05;4.20;;;;;;;-0.38;90.49;100397.84;4908619;28;20036;-68
2022/10/19 19:16:30;;;;;;;9.68;4.28;;;;;;;-0.40;90.11;100390.91;4885998;28;20046;-67
2022/10/19 19:19:29;;;;;;;9.02;3.25;;;;;;;-0.49;89.95;100392.38;4923708;28;20104;-67
2022/10/19 19:22:18;;;;;;;10.05;3.88;;;;;;;-0.55;90.49;100393.88;4868382;28;21000;-67
2022/10/19 19:25:00;;;;;;;7.50;3.00;;;;;;;-0.62;90.46;100380.00;4896925;28;20092;-67
2022/10/19 19:27:52;;;;;;;11.65;3.35;;;;;;;-0.57;90.85;100399.00;4909052;28;20297;-68
2022/10/19 19:30:44;;;;;;;5.47;3.00;;;;;;;-0.56;90.99;100390.44;4896711;28;20113;-68
2022/10/19 19:33:25;;;;;;;8.43;3.13;;;;;;;-0.61;90.78;100386.88;4893149;28;20044;-69
2022/10/19 19:36:11;;;;;;;5.15;3.08;;;;;;;-0.68;91.24;100364.41;4883099;28;20334;-67
2022/10/19 19:38:58;;;;;;;11.30;2.90;;;;;;;-0.53;91.26;100380.28;4898687;28;20103;-67
2022/10/19 19:41:43;;;;;;;7.13;2.60;;;;;;;-0.54;91.50;100383.69;4940499;28;20036;-68
2022/10/19 19:44:16;;;;;;;6.70;2.70;;;;;;;-0.48;91.25;100383.84;4907458;28;20045;-68
2022/10/19 19:47:04;;;;;;;10.27;2.80;;;;;;;-0.50;91.20;100380.38;4865518;28;20041;-68
2022/10/19 19:49:48;;;;;;;9.68;2.85;;;;;;;-0.46;91.31;100377.06;4892575;28;20343;-67
2022/10/19 19:52:26;;;;;;;7.97;2.97;;;;;;;-0.46;91.21;100382.19;4877081;28;20071;-67
2022/10/19 19:55:23;;;;;;;10.23;3.03;;;;;;;-0.41;91.16;100390.03;4863586;28;20045;-67
2022/10/19 20:01:01;;;;;;;7.43;2.55;;;;;;;-0.49;90.53;100389.81;4895324;28;20067;-68
2022/10/19 20:03:44;;;;;;;4.70;2.90;;;;;;;-0.49;90.96;100388.94;4836884;28;20055;-67
2022/10/19 20:06:35;;;;;;;8.13;2.65;;;;;;;-0.53;90.50;100395.66;4921119;28;20198;-68
2022/10/19 20:09:15;;;;;;;4.97;2.85;;;;;;;-0.54;90.21;100381.09;4859446;28;20121;-69
2022/10/19 20:11:51;;;;;;;;;;;;;;;-0.80;90.64;100351.19;4909106;28;20059;-69
2022/10/19 20:14:36;;;;;;;5.30;3.08;;;;;;;-0.57;90.57;100396.44;4913127;28;19981;-69
2022/10/19 20:17:31;;;;;;;9.73;2.90;;;;;;;-0.55;90.88;100392.22;4899069;28;20071;-68
2022/10/19 20:20:34;;;;;;;4.93;2.80;;;;;;;-0.55;91.42;100381.94;4865098;28;20040;-71
2022/10/19 20:23:30;;;;;;;10.57;2.88;;;;;;;-0.35;91.65;100389.34;4903997;28;20044;-69